createdAt,value
2022-09-06T00:01:12.863Z,17.52
2022-09-06T00:03:40.815Z,17.51
2022-09-06T00:06:16.762Z,17.52
2022-09-06T00:08:47.164Z,17.42
2022-09-06T00:11:17.060Z,17.34
2022-09-06T00:13:45.909Z,17.32
2022-09-06T00:16:21.446Z,17.30
2022-09-06T00:18:53.315Z,17.29
2022-09-06T00:21:25.564Z,17.30
2022-09-06T00:23:54.144Z,17.27
2022-09-06T00:26:23.482Z,17.25
2022-09-06T00:28:51.228Z,17.20
2022-09-06T00:31:23.070Z,17.22
2022-09-06T00:33:51.445Z,17.22
2022-09-06T00:36:21.269Z,17.29
2022-09-06T00:38:49.015Z,17.21
2022-09-06T00:41:17.874Z,17.18
2022-09-06T00:43:46.206Z,17.19
2022-09-06T00:46:21.376Z,17.13
2022-09-06T00:48:56.454Z,17.04
2022-09-06T00:51:29.578Z,17.02
2022-09-06T00:53:58.448Z,17.01
2022-09-06T00:56:27.421Z,17.04
2022-09-06T00:58:55.664Z,17.04
2022-09-06T01:01:23.543Z,16.99
2022-09-06T01:03:51.693Z,17.02
2022-09-06T01:06:25.549Z,17.09
2022-09-06T01:09:39.275Z,17.11
2022-09-06T01:13:02.270Z,17.04
2022-09-06T01:15:54.943Z,16.89
2022-09-06T01:18:49.883Z,16.86
2022-09-06T01:21:26.445Z,16.97
2022-09-06T01:24:46.914Z,17.03
2022-09-06T01:27:20.407Z,16.95
2022-09-06T01:30:00.015Z,16.97
2022-09-06T01:33:03.993Z,17.01
2022-09-06T01:35:56.018Z,16.95
2022-09-06T01:38:23.899Z,16.97
2022-09-06T01:40:51.773Z,16.94
2022-09-06T01:43:30.405Z,16.95
2022-09-06T01:46:07.847Z,17.00
2022-09-06T01:49:15.662Z,16.97
2022-09-06T01:52:14.610Z,16.94
2022-09-06T01:55:05.327Z,16.85
2022-09-06T01:58:19.681Z,16.80
2022-09-06T02:01:21.210Z,16.76
2022-09-06T02:03:54.126Z,16.73
2022-09-06T02:06:29.739Z,16.75
2022-09-06T02:09:09.941Z,16.74
2022-09-06T02:11:45.689Z,16.67
2022-09-06T02:14:20.749Z,16.67
2022-09-06T02:16:53.437Z,16.66
2022-09-06T02:19:27.783Z,16.66
2022-09-06T02:21:59.067Z,16.68
2022-09-06T02:24:31.519Z,16.62
2022-09-06T02:26:59.461Z,16.59
2022-09-06T02:29:28.079Z,16.58
2022-09-06T02:32:21.901Z,16.61
2022-09-06T02:34:55.128Z,16.63
2022-09-06T02:37:27.138Z,16.59
2022-09-06T02:39:56.100Z,16.59
2022-09-06T02:42:25.383Z,16.62
2022-09-06T02:44:53.267Z,16.66
2022-09-06T02:47:20.920Z,16.69
2022-09-06T02:49:49.193Z,16.66
2022-09-06T02:52:17.479Z,16.61
2022-09-06T02:54:45.288Z,16.58
2022-09-06T02:57:13.001Z,16.53
2022-09-06T02:59:40.949Z,16.52
2022-09-06T03:02:08.817Z,16.50
2022-09-06T03:04:36.907Z,16.49
2022-09-06T03:07:04.855Z,16.46
2022-09-06T03:09:32.730Z,16.41
2022-09-06T03:12:00.447Z,16.35
2022-09-06T03:14:28.106Z,16.28
2022-09-06T03:16:56.123Z,16.28
2022-09-06T03:19:24.029Z,16.28
2022-09-06T03:21:51.907Z,16.25
2022-09-06T03:24:19.655Z,16.22
2022-09-06T03:26:47.318Z,16.20
2022-09-06T03:29:15.070Z,16.20
2022-09-06T03:31:42.890Z,16.12
2022-09-06T03:34:11.323Z,16.02
2022-09-06T03:36:39.107Z,16.01
2022-09-06T03:39:07.184Z,16.00
2022-09-06T03:41:35.315Z,15.98
2022-09-06T03:44:03.661Z,15.95
2022-09-06T03:46:31.309Z,15.90
2022-09-06T03:48:59.979Z,15.88
2022-09-06T03:51:27.787Z,15.93
2022-09-06T03:53:55.738Z,15.93
2022-09-06T03:56:23.442Z,15.95
2022-09-06T03:58:51.233Z,16.00
2022-09-06T04:01:19.037Z,16.00
2022-09-06T04:03:47.384Z,15.94
2022-09-06T04:06:15.191Z,15.98
2022-09-06T04:08:42.917Z,15.98
2022-09-06T04:11:10.778Z,16.00
2022-09-06T04:13:38.730Z,16.03
2022-09-06T04:16:06.826Z,16.08
2022-09-06T04:18:34.695Z,16.12
2022-09-06T04:21:02.839Z,16.13
2022-09-06T04:23:30.655Z,16.19
2022-09-06T04:25:59.459Z,16.09
2022-09-06T04:28:27.976Z,15.98
2022-09-06T04:31:03.992Z,15.90
2022-09-06T04:33:35.943Z,15.91
2022-09-06T04:36:08.183Z,15.94
2022-09-06T04:38:42.204Z,15.91
2022-09-06T04:41:13.910Z,15.90
2022-09-06T04:43:43.408Z,15.90
2022-09-06T04:46:30.158Z,15.90
2022-09-06T04:48:58.661Z,15.89
2022-09-06T04:51:29.693Z,15.83
2022-09-06T04:53:57.436Z,15.78
2022-09-06T04:56:26.797Z,15.74
2022-09-06T04:58:55.738Z,15.73
2022-09-06T05:01:26.244Z,15.75
2022-09-06T05:03:56.893Z,15.73
2022-09-06T05:06:25.862Z,15.71
2022-09-06T05:08:53.677Z,15.72
2022-09-06T05:11:21.504Z,15.72
2022-09-06T05:13:50.238Z,15.72
2022-09-06T05:16:18.366Z,15.69
2022-09-06T05:18:46.261Z,15.70
2022-09-06T05:21:14.300Z,15.74
2022-09-06T05:23:42.115Z,15.79
2022-09-06T05:26:09.826Z,15.78
2022-09-06T05:28:37.837Z,15.82
2022-09-06T05:31:25.139Z,15.86
2022-09-06T05:33:54.491Z,15.88
2022-09-06T05:36:23.548Z,15.86
2022-09-06T05:38:52.815Z,15.86
2022-09-06T05:41:21.887Z,15.88
2022-09-06T05:43:49.817Z,15.88
2022-09-06T05:46:18.616Z,15.92
2022-09-06T05:48:54.434Z,15.96
2022-09-06T05:51:22.378Z,15.98
2022-09-06T05:53:50.480Z,16.00
2022-09-06T05:56:19.063Z,16.05
2022-09-06T05:58:46.763Z,16.13
2022-09-06T06:01:27.300Z,16.22
2022-09-06T06:03:58.987Z,16.31
2022-09-06T06:06:33.071Z,16.36
2022-09-06T06:09:01.569Z,16.44
2022-09-06T06:11:31.375Z,16.52
2022-09-06T06:13:59.381Z,16.58
2022-09-06T06:16:27.181Z,16.63
2022-09-06T06:18:55.397Z,16.63
2022-09-06T06:21:27.087Z,16.69
2022-09-06T06:24:01.573Z,16.75
2022-09-06T06:26:33.946Z,16.82
2022-09-06T06:29:02.460Z,16.89
2022-09-06T06:31:33.151Z,16.97
2022-09-06T06:34:03.770Z,17.04
2022-09-06T06:36:34.893Z,17.11
2022-09-06T06:39:08.431Z,17.16
2022-09-06T06:41:36.446Z,17.18
2022-09-06T06:44:09.760Z,17.22
2022-09-06T06:46:39.080Z,17.27
2022-09-06T06:49:06.765Z,17.32
2022-09-06T06:51:39.338Z,17.29
2022-09-06T06:54:07.394Z,17.23
2022-09-06T06:56:40.738Z,17.21
2022-09-06T06:59:08.613Z,17.22
2022-09-06T07:01:37.329Z,17.20
2022-09-06T07:04:05.785Z,17.20
2022-09-06T07:12:27.214Z,17.24
2022-09-06T07:14:55.551Z,17.30
2022-09-06T07:17:23.355Z,17.35
2022-09-06T07:22:40.538Z,17.58
2022-09-06T07:25:15.288Z,17.62
2022-09-06T07:30:19.512Z,17.70
2022-09-06T07:32:47.911Z,17.76
2022-09-06T07:35:16.055Z,17.80
2022-09-06T07:37:43.817Z,17.94
2022-09-06T07:40:11.802Z,18.10
2022-09-06T07:42:39.880Z,18.31
2022-09-06T07:45:08.513Z,18.45
2022-09-06T07:53:15.512Z,18.91
2022-09-06T07:55:45.392Z,18.97
2022-09-06T07:58:14.219Z,19.05
2022-09-06T08:00:42.077Z,19.16
2022-09-06T08:03:10.310Z,19.32
2022-09-06T08:11:14.186Z,19.54
2022-09-06T08:13:42.449Z,19.58
2022-09-06T08:16:12.508Z,19.64
2022-09-06T08:18:40.347Z,19.69
2022-09-06T08:21:12.857Z,19.77
2022-09-06T08:23:48.953Z,19.85
2022-09-06T08:26:18.893Z,19.86
2022-09-06T08:28:47.383Z,19.88
2022-09-06T08:31:17.666Z,19.90
2022-09-06T08:33:47.618Z,19.96
2022-09-06T08:36:15.979Z,20.01
2022-09-06T08:38:43.853Z,20.01
2022-09-06T08:41:14.190Z,19.92
2022-09-06T08:47:10.934Z,19.87
2022-09-06T08:49:46.039Z,19.90
2022-09-06T08:52:35.274Z,19.85
2022-09-06T08:56:04.450Z,19.76
2022-09-06T08:59:02.659Z,19.69
2022-09-06T09:02:03.728Z,19.66
2022-09-06T09:04:34.938Z,19.73
2022-09-06T09:07:38.747Z,19.82
2022-09-06T09:10:18.992Z,19.83
2022-09-06T09:12:48.908Z,19.80
2022-09-06T09:15:20.533Z,19.84
2022-09-06T09:17:51.752Z,19.87
2022-09-06T09:20:21.343Z,19.85
2022-09-06T09:22:49.390Z,19.86
2022-09-06T09:25:24.511Z,19.89
2022-09-06T09:28:00.302Z,19.85
2022-09-06T09:30:53.084Z,19.87
2022-09-06T09:33:32.496Z,20.07
2022-09-06T09:36:07.452Z,20.27
2022-09-06T09:38:44.261Z,20.42
2022-09-06T09:41:30.181Z,20.44
2022-09-06T09:44:04.855Z,20.42
2022-09-06T09:46:36.410Z,20.45
2022-09-06T09:49:04.103Z,20.43
2022-09-06T09:51:44.492Z,20.42
2022-09-06T09:54:15.163Z,20.53
2022-09-06T09:56:49.801Z,20.55
2022-09-06T09:59:44.516Z,20.46
2022-09-06T10:02:39.073Z,20.54
2022-09-06T10:05:12.663Z,20.56
2022-09-06T10:07:57.294Z,20.66
2022-09-06T10:10:34.682Z,20.83
2022-09-06T10:13:22.168Z,20.85
2022-09-06T10:15:53.532Z,20.80
2022-09-06T10:18:21.122Z,20.74
2022-09-06T10:20:59.434Z,20.67
2022-09-06T10:26:51.752Z,20.85
2022-09-06T10:29:52.915Z,20.95
2022-09-06T10:32:47.864Z,21.05
2022-09-06T10:35:35.167Z,21.11
2022-09-06T10:38:43.399Z,21.13
2022-09-06T10:41:55.191Z,21.10
2022-09-06T10:44:41.427Z,21.03
2022-09-06T10:47:13.468Z,21.05
2022-09-06T10:49:47.138Z,21.19
2022-09-06T10:52:25.599Z,21.25
2022-09-06T10:55:02.129Z,21.26
2022-09-06T11:00:33.904Z,21.24
2022-09-06T11:06:12.804Z,21.10
2022-09-06T11:08:53.577Z,21.05
2022-09-06T11:11:49.356Z,21.01
2022-09-06T11:14:21.014Z,21.03
2022-09-06T11:16:59.196Z,21.12
2022-09-06T11:19:44.193Z,21.25
2022-09-06T11:22:38.710Z,21.33
2022-09-06T11:25:51.380Z,21.34
2022-09-06T11:28:35.374Z,21.36
2022-09-06T11:31:05.709Z,21.48
2022-09-06T11:33:39.880Z,21.63
2022-09-06T11:36:45.218Z,21.78
2022-09-06T11:39:14.931Z,21.83
2022-09-06T11:41:42.890Z,21.93
2022-09-06T11:44:11.020Z,22.03
2022-09-06T11:46:41.996Z,22.08
2022-09-06T11:49:29.329Z,22.13
2022-09-06T11:51:57.126Z,22.15
2022-09-06T11:54:44.226Z,22.21
2022-09-06T11:57:22.488Z,22.26
2022-09-06T12:00:02.100Z,22.26
2022-09-06T12:02:42.373Z,22.25
2022-09-06T12:05:14.476Z,22.22
2022-09-06T12:08:31.760Z,22.23
2022-09-06T12:11:06.428Z,22.19
2022-09-06T12:13:39.305Z,22.15
2022-09-06T12:16:09.366Z,22.00
2022-09-06T12:18:43.115Z,21.77
2022-09-06T12:21:36.508Z,21.55
2022-09-06T12:24:26.124Z,21.49
2022-09-06T12:27:15.975Z,21.57
2022-09-06T12:30:09.530Z,21.62
2022-09-06T12:32:46.842Z,21.74
2022-09-06T12:38:25.212Z,21.84
2022-09-06T12:40:58.431Z,21.75
2022-09-06T12:43:27.088Z,21.72
2022-09-06T12:45:54.875Z,21.67
2022-09-06T12:48:27.262Z,21.60
2022-09-06T12:51:16.147Z,21.57
2022-09-06T12:53:57.078Z,21.62
2022-09-06T12:56:26.983Z,21.86
2022-09-06T12:59:14.178Z,22.32
2022-09-06T13:01:51.146Z,22.55
2022-09-06T13:04:42.455Z,22.57
2022-09-06T13:07:16.105Z,22.53
2022-09-06T13:09:49.597Z,22.48
2022-09-06T13:12:42.453Z,22.50
2022-09-06T13:15:31.636Z,22.63
2022-09-06T13:18:38.180Z,22.76
2022-09-06T13:21:18.919Z,22.82
2022-09-06T13:23:50.933Z,23.05
2022-09-06T13:26:37.648Z,23.19
2022-09-06T13:29:17.217Z,23.22
2022-09-06T13:31:54.778Z,23.13
2022-09-06T13:34:29.682Z,23.05
2022-09-06T13:37:05.916Z,23.02
2022-09-06T13:39:42.132Z,23.08
2022-09-06T13:42:27.569Z,23.12
2022-09-06T13:45:01.283Z,23.16
2022-09-06T13:47:30.143Z,23.31
2022-09-06T13:49:57.806Z,23.45
2022-09-06T13:52:25.929Z,23.62
2022-09-06T13:54:53.562Z,23.75
2022-09-06T13:57:24.475Z,23.88
2022-09-06T13:59:52.535Z,23.92
2022-09-06T14:02:20.942Z,24.00
2022-09-06T14:04:48.718Z,24.07
2022-09-06T14:07:16.633Z,24.03
2022-09-06T14:09:44.435Z,23.91
2022-09-06T14:12:12.346Z,23.82
2022-09-06T14:14:40.245Z,23.74
2022-09-06T14:17:08.151Z,23.78
2022-09-06T14:19:35.992Z,23.82
2022-09-06T14:22:05.583Z,23.74
2022-09-06T14:24:33.589Z,23.72
2022-09-06T14:27:01.881Z,23.72
2022-09-06T14:29:29.706Z,23.58
2022-09-06T14:31:57.406Z,23.36
2022-09-06T14:34:25.751Z,23.07
2022-09-06T14:36:54.131Z,22.86
2022-09-06T14:39:22.319Z,22.68
2022-09-06T14:41:50.577Z,22.54
2022-09-06T14:44:18.241Z,22.49
2022-09-06T14:46:47.745Z,22.39
2022-09-06T14:49:15.817Z,22.28
2022-09-06T14:51:43.624Z,22.13
2022-09-06T14:54:15.728Z,22.00
2022-09-06T14:56:44.185Z,21.87
2022-09-06T14:59:12.344Z,21.77
2022-09-06T15:01:41.109Z,21.63
2022-09-06T15:04:11.112Z,21.51
2022-09-06T15:06:41.144Z,21.40
2022-09-06T15:09:11.235Z,21.25
2022-09-06T15:11:48.435Z,21.12
2022-09-06T15:14:25.888Z,21.03
2022-09-06T15:16:58.012Z,20.93
2022-09-06T15:19:28.958Z,20.96
2022-09-06T15:21:57.389Z,21.03
2022-09-06T15:24:25.804Z,21.08
2022-09-06T15:26:53.593Z,21.11
2022-09-06T15:29:21.370Z,21.14
2022-09-06T15:31:50.799Z,21.15
2022-09-06T15:34:22.062Z,21.13
2022-09-06T15:36:51.206Z,21.10
2022-09-06T15:39:19.371Z,21.10
2022-09-06T15:41:49.996Z,21.14
2022-09-06T15:44:21.033Z,21.11
2022-09-06T15:46:57.603Z,21.05
2022-09-06T15:49:32.151Z,20.97
2022-09-06T15:52:03.426Z,20.92
2022-09-06T15:54:49.641Z,20.86
2022-09-06T15:57:18.232Z,20.83
2022-09-06T15:59:46.746Z,20.74
2022-09-06T16:02:14.819Z,20.67
2022-09-06T16:04:42.702Z,20.52
2022-09-06T16:07:10.805Z,20.31
2022-09-06T16:09:38.963Z,20.13
2022-09-06T16:12:07.005Z,20.01
2022-09-06T16:14:35.634Z,19.97
2022-09-06T16:17:03.498Z,19.93
2022-09-06T16:19:31.450Z,19.92
2022-09-06T16:21:59.199Z,19.94
2022-09-06T16:24:26.964Z,19.95
2022-09-06T16:26:54.929Z,19.95
2022-09-06T16:29:22.644Z,19.98
2022-09-06T16:31:52.673Z,20.02
2022-09-06T16:34:20.314Z,20.05
2022-09-06T16:36:50.082Z,20.08
2022-09-06T16:39:17.877Z,20.09
2022-09-06T16:41:46.605Z,20.10
2022-09-06T16:44:18.435Z,20.15
2022-09-06T16:46:48.646Z,20.18
2022-09-06T16:49:19.138Z,20.14
2022-09-06T16:51:49.288Z,20.11
2022-09-06T16:54:18.846Z,20.12
2022-09-06T16:56:46.603Z,20.07
2022-09-06T16:59:17.060Z,20.01
2022-09-06T17:01:45.569Z,19.98
2022-09-06T17:04:13.988Z,19.95
2022-09-06T17:06:45.552Z,19.95
2022-09-06T17:09:21.057Z,19.90
2022-09-06T17:11:51.972Z,19.84
2022-09-06T17:14:19.707Z,19.78
2022-09-06T17:17:05.862Z,19.74
2022-09-06T17:19:40.661Z,19.71
2022-09-06T17:22:10.604Z,19.69
2022-09-06T17:24:40.688Z,19.66
2022-09-06T17:27:09.217Z,19.60
2022-09-06T17:29:37.323Z,19.56
2022-09-06T17:32:10.031Z,19.41
2022-09-06T17:34:39.912Z,19.21
2022-09-06T17:37:08.566Z,19.01
2022-09-06T17:39:37.426Z,18.79
2022-09-06T17:42:05.727Z,18.57
2022-09-06T17:44:34.851Z,18.38
2022-09-06T17:47:12.506Z,18.25
2022-09-06T17:49:42.629Z,18.16
2022-09-06T17:52:11.439Z,18.10
2022-09-06T17:54:39.307Z,18.08
2022-09-06T17:57:07.206Z,18.06
2022-09-06T17:59:35.923Z,18.03
2022-09-06T18:02:05.196Z,18.02
2022-09-06T18:04:33.368Z,18.02
2022-09-06T18:07:01.331Z,17.98
2022-09-06T18:09:29.192Z,17.95
2022-09-06T18:11:58.586Z,17.96
2022-09-06T18:14:28.570Z,17.95
2022-09-06T18:16:57.007Z,17.91
2022-09-06T18:19:27.439Z,17.93
2022-09-06T18:21:57.115Z,17.89
2022-09-06T18:24:25.027Z,17.85
2022-09-06T18:26:52.858Z,17.85
2022-09-06T18:29:21.766Z,17.78
2022-09-06T18:31:53.400Z,17.73
2022-09-06T18:34:21.931Z,17.67
2022-09-06T18:36:49.756Z,17.62
2022-09-06T18:39:19.066Z,17.56
2022-09-06T18:42:02.012Z,17.50
2022-09-06T18:44:34.390Z,17.44
2022-09-06T18:47:05.621Z,17.43
2022-09-06T18:49:33.988Z,17.41
2022-09-06T18:52:06.157Z,17.40
2022-09-06T18:54:35.070Z,17.38
2022-09-06T18:57:03.314Z,17.37
2022-09-06T18:59:31.246Z,17.38
2022-09-06T19:01:59.281Z,17.36
2022-09-06T19:04:27.419Z,17.35
2022-09-06T19:06:55.159Z,17.42
2022-09-06T19:09:23.310Z,17.46
2022-09-06T19:11:53.042Z,17.50
2022-09-06T19:14:21.680Z,17.51
2022-09-06T19:16:51.434Z,17.54
2022-09-06T19:19:19.367Z,17.57
2022-09-06T19:21:47.555Z,17.56
2022-09-06T19:24:16.179Z,17.54
2022-09-06T19:26:45.309Z,17.55
2022-09-06T19:29:17.567Z,17.63
2022-09-06T19:31:47.571Z,17.62
2022-09-06T19:34:16.791Z,17.59
2022-09-06T19:36:45.574Z,17.60
2022-09-06T19:39:16.440Z,17.57
2022-09-06T19:41:46.903Z,17.56
2022-09-06T19:44:17.452Z,17.58
2022-09-06T19:46:47.014Z,17.57
2022-09-06T19:49:19.778Z,17.60
2022-09-06T19:51:50.422Z,17.60
2022-09-06T19:54:18.485Z,17.55
2022-09-06T19:56:47.058Z,17.53
2022-09-06T19:59:18.834Z,17.53
2022-09-06T20:01:47.662Z,17.46
2022-09-06T20:04:16.173Z,17.39
2022-09-06T20:06:44.517Z,17.39
2022-09-06T20:09:13.489Z,17.35
2022-09-06T20:11:42.537Z,17.28
2022-09-06T20:14:11.727Z,17.22
2022-09-06T20:16:42.083Z,17.20
2022-09-06T20:19:13.062Z,17.20
2022-09-06T20:21:41.361Z,17.21
2022-09-06T20:24:09.469Z,17.18
2022-09-06T20:26:37.879Z,17.14
2022-09-06T20:29:06.965Z,17.06
2022-09-06T20:31:36.655Z,17.01
2022-09-06T20:34:07.073Z,16.97
2022-09-06T20:36:35.375Z,16.91
2022-09-06T20:39:04.438Z,16.86
2022-09-06T20:41:33.719Z,16.83
2022-09-06T20:44:02.269Z,16.80
2022-09-06T20:46:35.115Z,16.75
2022-09-06T20:49:04.797Z,16.71
2022-09-06T20:51:35.553Z,16.71
2022-09-06T20:54:05.250Z,16.70
2022-09-06T20:56:38.020Z,16.67
2022-09-06T20:59:09.681Z,16.64
2022-09-06T21:01:41.952Z,16.64
2022-09-06T21:04:12.859Z,16.61
2022-09-06T21:06:41.559Z,16.62
2022-09-06T21:09:13.239Z,16.64
2022-09-06T21:11:42.582Z,16.72
2022-09-06T21:14:10.609Z,16.75
2022-09-06T21:16:40.534Z,16.75
2022-09-06T21:19:11.057Z,16.75
2022-09-06T21:21:40.142Z,16.79
2022-09-06T21:24:10.000Z,16.82
2022-09-06T21:26:38.265Z,16.80
2022-09-06T21:29:06.035Z,16.78
2022-09-06T21:31:39.864Z,16.75
2022-09-06T21:34:16.897Z,16.71
2022-09-06T21:36:45.485Z,16.64
2022-09-06T21:39:13.912Z,16.60
2022-09-06T21:41:44.044Z,16.57
2022-09-06T21:44:12.797Z,16.54
2022-09-06T21:46:41.253Z,16.49
2022-09-06T21:49:12.813Z,16.46
2022-09-06T21:51:41.648Z,16.40
2022-09-06T21:54:09.721Z,16.35
2022-09-06T21:56:39.400Z,16.26
2022-09-06T21:59:07.872Z,16.15
2022-09-06T22:01:37.850Z,16.04
2022-09-06T22:04:06.911Z,16.01
2022-09-06T22:06:36.523Z,15.98
2022-09-06T22:09:13.311Z,15.95
2022-09-06T22:11:43.698Z,15.90
2022-09-06T22:14:14.494Z,15.87
2022-09-06T22:16:42.739Z,15.86
2022-09-06T22:19:12.025Z,15.83
2022-09-06T22:21:40.296Z,15.81
2022-09-06T22:24:11.106Z,15.85
2022-09-06T22:26:40.990Z,15.86
2022-09-06T22:29:11.291Z,15.89
2022-09-06T22:31:39.934Z,15.89
2022-09-06T22:34:08.283Z,15.86
2022-09-06T22:36:36.515Z,15.83
2022-09-06T22:39:04.720Z,15.75
2022-09-06T22:41:33.917Z,15.73
2022-09-06T22:44:03.011Z,15.79
2022-09-06T22:46:31.519Z,15.84
2022-09-06T22:49:00.664Z,15.84
2022-09-06T22:51:28.440Z,15.88
2022-09-06T22:53:56.247Z,15.88
2022-09-06T22:56:24.512Z,15.90
2022-09-06T22:58:52.357Z,15.82
2022-09-06T23:01:20.235Z,15.80
2022-09-06T23:03:49.274Z,15.79
2022-09-06T23:06:17.181Z,15.77
2022-09-06T23:08:45.478Z,15.74
2022-09-06T23:11:16.738Z,15.68
2022-09-06T23:13:46.113Z,15.63
2022-09-06T23:16:19.377Z,15.51
2022-09-06T23:18:48.417Z,15.43
2022-09-06T23:21:20.180Z,15.40
2022-09-06T23:23:50.794Z,15.41
2022-09-06T23:26:25.793Z,15.41
2022-09-06T23:28:57.069Z,15.37
2022-09-06T23:31:28.537Z,15.35
2022-09-06T23:33:58.922Z,15.30
2022-09-06T23:36:27.695Z,15.23
2022-09-06T23:38:56.195Z,15.16
2022-09-06T23:41:24.938Z,15.12
2022-09-06T23:43:52.825Z,15.11
2022-09-06T23:46:20.640Z,15.13
2022-09-06T23:48:48.429Z,15.11
2022-09-06T23:51:16.239Z,15.06
2022-09-06T23:53:45.203Z,15.06
2022-09-06T23:56:12.959Z,15.03
2022-09-06T23:58:40.781Z,15.06
